sensor_id;sensor_type;location;lat;lon;timestamp;pressure;altitude;pressure_sealevel;temperature;humidity
55610;BME280;41486;52.502;13.486;2023-07-28T00:02:02;99868.47;;;16.65;100.00
55610;BME280;41486;52.502;13.486;2023-07-28T00:04:30;99866.81;;;16.64;100.00
55610;BME280;41486;52.502;13.486;2023-07-28T00:06:58;99874.63;;;16.65;100.00
55610;BME280;41486;52.502;13.486;2023-07-28T00:09:28;99874.44;;;16.67;100.00
55610;BME280;41486;52.502;13.486;2023-07-28T00:11:56;99860.28;;;16.75;100.00
55610;BME280;41486;52.502;13.486;2023-07-28T00:14:25;99849.94;;;16.80;100.00
55610;BME280;41486;52.502;13.486;2023-07-28T00:16:53;99862.19;;;16.66;100.00
55610;BME280;41486;52.502;13.486;2023-07-28T00:19:21;99864.84;;;16.66;100.00
55610;BME280;41486;52.502;13.486;2023-07-28T00:21:50;99860.56;;;16.80;100.00
55610;BME280;41486;52.502;13.486;2023-07-28T00:24:18;99851.25;;;16.84;100.00
55610;BME280;41486;52.502;13.486;2023-07-28T00:26:47;99840.75;;;16.67;100.00
55610;BME280;41486;52.502;13.486;2023-07-28T00:29:16;99828.69;;;16.80;100.00
55610;BME280;41486;52.502;13.486;2023-07-28T00:31:44;99828.94;;;16.70;100.00
55610;BME280;41486;52.502;13.486;2023-07-28T00:34:11;99826.03;;;16.80;100.00
55610;BME280;41486;52.502;13.486;2023-07-28T00:36:39;99811.66;;;16.89;100.00
55610;BME280;41486;52.502;13.486;2023-07-28T00:39:07;99813.50;;;16.88;100.00
55610;BME280;41486;52.502;13.486;2023-07-28T00:41:35;99810.78;;;16.74;100.00
55610;BME280;41486;52.502;13.486;2023-07-28T00:44:05;99808.25;;;16.80;100.00
55610;BME280;41486;52.502;13.486;2023-07-28T00:46:33;99807.72;;;16.85;100.00
55610;BME280;41486;52.502;13.486;2023-07-28T00:49:02;99805.13;;;16.77;100.00
55610;BME280;41486;52.502;13.486;2023-07-28T00:51:31;99803.03;;;16.87;100.00
55610;BME280;41486;52.502;13.486;2023-07-28T00:54:00;99796.78;;;16.80;100.00
55610;BME280;41486;52.502;13.486;2023-07-28T00:56:31;99795.53;;;16.91;100.00
55610;BME280;41486;52.502;13.486;2023-07-28T00:59:00;99791.06;;;16.91;100.00
55610;BME280;41486;52.502;13.486;2023-07-28T01:01:30;99791.38;;;16.96;100.00
55610;BME280;41486;52.502;13.486;2023-07-28T01:03:58;99776.72;;;17.00;100.00
55610;BME280;41486;52.502;13.486;2023-07-28T01:06:32;99775.06;;;16.99;100.00
55610;BME280;41486;52.502;13.486;2023-07-28T01:09:03;99763.34;;;16.94;100.00
55610;BME280;41486;52.502;13.486;2023-07-28T01:11:34;99774.63;;;16.96;100.00
55610;BME280;41486;52.502;13.486;2023-07-28T01:14:02;99773.63;;;16.97;100.00
55610;BME280;41486;52.502;13.486;2023-07-28T01:16:31;99770.88;;;17.05;100.00
55610;BME280;41486;52.502;13.486;2023-07-28T01:18:59;99766.84;;;17.09;100.00
55610;BME280;41486;52.502;13.486;2023-07-28T01:21:30;99751.34;;;17.13;100.00
55610;BME280;41486;52.502;13.486;2023-07-28T01:24:05;99757.41;;;17.07;100.00
55610;BME280;41486;52.502;13.486;2023-07-28T01:26:38;99753.00;;;17.14;100.00
55610;BME280;41486;52.502;13.486;2023-07-28T01:29:08;99739.97;;;17.19;100.00
55610;BME280;41486;52.502;13.486;2023-07-28T01:31:37;99742.94;;;17.24;100.00
55610;BME280;41486;52.502;13.486;2023-07-28T01:34:05;99729.81;;;17.23;100.00
55610;BME280;41486;52.502;13.486;2023-07-28T01:36:33;99738.06;;;17.28;100.00
55610;BME280;41486;52.502;13.486;2023-07-28T01:39:02;99740.72;;;17.28;100.00
55610;BME280;41486;52.502;13.486;2023-07-28T01:41:30;99738.91;;;17.13;100.00
55610;BME280;41486;52.502;13.486;2023-07-28T01:47:09;99740.28;;;17.24;100.00
55610;BME280;41486;52.502;13.486;2023-07-28T01:49:37;99746.13;;;17.19;100.00
55610;BME280;41486;52.502;13.486;2023-07-28T01:52:05;99760.78;;;17.15;100.00
55610;BME280;41486;52.502;13.486;2023-07-28T01:54:36;99782.16;;;17.22;100.00
55610;BME280;41486;52.502;13.486;2023-07-28T01:57:04;99771.63;;;17.29;100.00
55610;BME280;41486;52.502;13.486;2023-07-28T01:59:33;99755.56;;;17.22;100.00
55610;BME280;41486;52.502;13.486;2023-07-28T02:02:01;99771.88;;;17.19;100.00
55610;BME280;41486;52.502;13.486;2023-07-28T02:04:30;99774.63;;;17.11;100.00
55610;BME280;41486;52.502;13.486;2023-07-28T02:06:58;99780.69;;;17.19;100.00
55610;BME280;41486;52.502;13.486;2023-07-28T02:09:26;99761.91;;;17.21;100.00
55610;BME280;41486;52.502;13.486;2023-07-28T02:11:54;99765.47;;;17.28;100.00
55610;BME280;41486;52.502;13.486;2023-07-28T02:14:22;99767.97;;;17.30;100.00
55610;BME280;41486;52.502;13.486;2023-07-28T02:16:50;99756.22;;;17.24;100.00
55610;BME280;41486;52.502;13.486;2023-07-28T02:19:18;99757.78;;;17.18;100.00
55610;BME280;41486;52.502;13.486;2023-07-28T02:21:47;99765.47;;;17.13;100.00
55610;BME280;41486;52.502;13.486;2023-07-28T02:24:16;99767.50;;;17.26;100.00
55610;BME280;41486;52.502;13.486;2023-07-28T02:26:44;99772.25;;;17.16;100.00
55610;BME280;41486;52.502;13.486;2023-07-28T02:29:12;99767.88;;;17.23;100.00
55610;BME280;41486;52.502;13.486;2023-07-28T02:31:40;99767.13;;;17.29;100.00
55610;BME280;41486;52.502;13.486;2023-07-28T02:34:08;99766.31;;;17.29;100.00
55610;BME280;41486;52.502;13.486;2023-07-28T02:36:36;99753.47;;;17.32;100.00
55610;BME280;41486;52.502;13.486;2023-07-28T02:39:05;99753.03;;;17.29;100.00
55610;BME280;41486;52.502;13.486;2023-07-28T02:41:33;99760.16;;;17.28;100.00
55610;BME280;41486;52.502;13.486;2023-07-28T02:44:01;99751.81;;;17.31;100.00
55610;BME280;41486;52.502;13.486;2023-07-28T02:46:29;99759.53;;;17.26;100.00
55610;BME280;41486;52.502;13.486;2023-07-28T02:48:57;99748.31;;;17.31;100.00
55610;BME280;41486;52.502;13.486;2023-07-28T02:51:25;99749.97;;;17.32;100.00
55610;BME280;41486;52.502;13.486;2023-07-28T02:53:53;99748.41;;;17.38;100.00
55610;BME280;41486;52.502;13.486;2023-07-28T02:56:23;99733.47;;;17.37;100.00
55610;BME280;41486;52.502;13.486;2023-07-28T02:58:51;99731.28;;;17.40;100.00
55610;BME280;41486;52.502;13.486;2023-07-28T03:01:19;99728.25;;;17.43;100.00
55610;BME280;41486;52.502;13.486;2023-07-28T03:03:47;99723.28;;;17.40;100.00
55610;BME280;41486;52.502;13.486;2023-07-28T03:06:16;99721.03;;;17.37;100.00
55610;BME280;41486;52.502;13.486;2023-07-28T03:08:44;99727.53;;;17.34;100.00
55610;BME280;41486;52.502;13.486;2023-07-28T03:11:36;99734.94;;;17.39;100.00
55610;BME280;41486;52.502;13.486;2023-07-28T03:14:04;99735.31;;;17.36;100.00
55610;BME280;41486;52.502;13.486;2023-07-28T03:16:32;99735.13;;;17.38;100.00
55610;BME280;41486;52.502;13.486;2023-07-28T03:19:01;99736.13;;;17.37;100.00
55610;BME280;41486;52.502;13.486;2023-07-28T03:21:29;99742.91;;;17.39;100.00
55610;BME280;41486;52.502;13.486;2023-07-28T03:23:58;99753.84;;;17.44;100.00
55610;BME280;41486;52.502;13.486;2023-07-28T03:26:26;99748.69;;;17.43;100.00
55610;BME280;41486;52.502;13.486;2023-07-28T03:28:55;99749.72;;;17.42;100.00
55610;BME280;41486;52.502;13.486;2023-07-28T03:31:23;99746.31;;;17.48;100.00
55610;BME280;41486;52.502;13.486;2023-07-28T03:33:51;99750.34;;;17.44;100.00
55610;BME280;41486;52.502;13.486;2023-07-28T03:36:20;99750.78;;;17.47;100.00
55610;BME280;41486;52.502;13.486;2023-07-28T03:38:48;99750.44;;;17.50;100.00
55610;BME280;41486;52.502;13.486;2023-07-28T03:41:16;99748.59;;;17.51;100.00
55610;BME280;41486;52.502;13.486;2023-07-28T03:43:45;99751.00;;;17.46;100.00
55610;BME280;41486;52.502;13.486;2023-07-28T03:46:15;99755.75;;;17.50;100.00
55610;BME280;41486;52.502;13.486;2023-07-28T03:48:43;99758.06;;;17.54;100.00
55610;BME280;41486;52.502;13.486;2023-07-28T03:51:11;99739.34;;;17.62;100.00
55610;BME280;41486;52.502;13.486;2023-07-28T03:53:40;99753.66;;;17.61;100.00
55610;BME280;41486;52.502;13.486;2023-07-28T03:56:08;99752.53;;;17.55;100.00
55610;BME280;41486;52.502;13.486;2023-07-28T03:58:36;99747.03;;;17.57;100.00
55610;BME280;41486;52.502;13.486;2023-07-28T04:01:04;99761.19;;;17.57;100.00
55610;BME280;41486;52.502;13.486;2023-07-28T04:03:35;99750.25;;;17.67;100.00
55610;BME280;41486;52.502;13.486;2023-07-28T04:06:06;99754.84;;;17.58;100.00
55610;BME280;41486;52.502;13.486;2023-07-28T04:08:34;99761.06;;;17.65;100.00
55610;BME280;41486;52.502;13.486;2023-07-28T04:11:03;99753.72;;;17.67;100.00
55610;BME280;41486;52.502;13.486;2023-07-28T04:13:33;99754.00;;;17.58;100.00
55610;BME280;41486;52.502;13.486;2023-07-28T04:16:01;99758.41;;;17.65;100.00
55610;BME280;41486;52.502;13.486;2023-07-28T04:18:29;99761.44;;;17.62;100.00
55610;BME280;41486;52.502;13.486;2023-07-28T04:21:00;99759.41;;;17.64;100.00
55610;BME280;41486;52.502;13.486;2023-07-28T04:23:28;99767.84;;;17.68;100.00
55610;BME280;41486;52.502;13.486;2023-07-28T04:25:57;99763.53;;;17.67;100.00
55610;BME280;41486;52.502;13.486;2023-07-28T04:28:28;99760.78;;;17.75;100.00
55610;BME280;41486;52.502;13.486;2023-07-28T04:30:56;99759.47;;;17.71;100.00
55610;BME280;41486;52.502;13.486;2023-07-28T04:33:50;99747.13;;;17.78;100.00
55610;BME280;41486;52.502;13.486;2023-07-28T04:36:19;99750.94;;;17.76;100.00
55610;BME280;41486;52.502;13.486;2023-07-28T04:38:47;99742.41;;;17.80;100.00
55610;BME280;41486;52.502;13.486;2023-07-28T04:41:16;99746.91;;;17.80;100.00
55610;BME280;41486;52.502;13.486;2023-07-28T04:43:52;99740.84;;;17.86;100.00
55610;BME280;41486;52.502;13.486;2023-07-28T04:46:21;99741.59;;;17.80;100.00
55610;BME280;41486;52.502;13.486;2023-07-28T04:48:54;99744.25;;;17.80;100.00
55610;BME280;41486;52.502;13.486;2023-07-28T04:51:46;99737.97;;;17.88;100.00
55610;BME280;41486;52.502;13.486;2023-07-28T04:54:37;99744.16;;;17.88;100.00
55610;BME280;41486;52.502;13.486;2023-07-28T04:57:07;99738.25;;;17.93;100.00
55610;BME280;41486;52.502;13.486;2023-07-28T04:59:37;99734.88;;;17.84;100.00
55610;BME280;41486;52.502;13.486;2023-07-28T05:02:06;99738.75;;;17.81;100.00
55610;BME280;41486;52.502;13.486;2023-07-28T05:04:34;99742.84;;;17.84;100.00
55610;BME280;41486;52.502;13.486;2023-07-28T05:07:05;99749.56;;;17.80;100.00
55610;BME280;41486;52.502;13.486;2023-07-28T05:09:33;99753.50;;;17.84;100.00
55610;BME280;41486;52.502;13.486;2023-07-28T05:12:01;99755.44;;;17.90;100.00
55610;BME280;41486;52.502;13.486;2023-07-28T05:14:33;99760.47;;;17.85;100.00
55610;BME280;41486;52.502;13.486;2023-07-28T05:17:01;99759.34;;;17.94;100.00
55610;BME280;41486;52.502;13.486;2023-07-28T05:19:49;99752.06;;;17.96;100.00
55610;BME280;41486;52.502;13.486;2023-07-28T05:22:40;99746.72;;;17.96;100.00
55610;BME280;41486;52.502;13.486;2023-07-28T05:25:08;99746.34;;;18.00;100.00
55610;BME280;41486;52.502;13.486;2023-07-28T05:27:40;99746.63;;;18.05;100.00
55610;BME280;41486;52.502;13.486;2023-07-28T05:30:09;99745.59;;;18.06;100.00
55610;BME280;41486;52.502;13.486;2023-07-28T05:32:37;99762.31;;;18.00;100.00
55610;BME280;41486;52.502;13.486;2023-07-28T05:35:20;99755.34;;;17.99;100.00
55610;BME280;41486;52.502;13.486;2023-07-28T05:37:49;99751.50;;;18.01;100.00
55610;BME280;41486;52.502;13.486;2023-07-28T05:40:18;99760.03;;;17.96;100.00
55610;BME280;41486;52.502;13.486;2023-07-28T05:42:46;99758.72;;;17.92;100.00
55610;BME280;41486;52.502;13.486;2023-07-28T05:45:15;99760.84;;;17.97;100.00
55610;BME280;41486;52.502;13.486;2023-07-28T05:47:43;99748.63;;;17.88;100.00
55610;BME280;41486;52.502;13.486;2023-07-28T05:50:11;99763.88;;;17.94;100.00
55610;BME280;41486;52.502;13.486;2023-07-28T05:52:39;99757.81;;;18.00;100.00
55610;BME280;41486;52.502;13.486;2023-07-28T05:55:09;99764.34;;;17.97;100.00
55610;BME280;41486;52.502;13.486;2023-07-28T05:57:37;99762.94;;;18.02;100.00
55610;BME280;41486;52.502;13.486;2023-07-28T06:00:08;99772.22;;;18.06;100.00
55610;BME280;41486;52.502;13.486;2023-07-28T06:02:40;99769.69;;;17.97;100.00
55610;BME280;41486;52.502;13.486;2023-07-28T06:05:14;99767.25;;;18.03;100.00
55610;BME280;41486;52.502;13.486;2023-07-28T06:07:42;99773.59;;;18.02;100.00
55610;BME280;41486;52.502;13.486;2023-07-28T06:10:11;99783.16;;;17.96;100.00
55610;BME280;41486;52.502;13.486;2023-07-28T06:12:39;99786.53;;;18.05;100.00
55610;BME280;41486;52.502;13.486;2023-07-28T06:15:08;99788.56;;;18.03;100.00
55610;BME280;41486;52.502;13.486;2023-07-28T06:17:37;99790.31;;;18.10;100.00
55610;BME280;41486;52.502;13.486;2023-07-28T06:20:07;99802.13;;;18.08;100.00
55610;BME280;41486;52.502;13.486;2023-07-28T06:22:36;99805.28;;;17.96;100.00
55610;BME280;41486;52.502;13.486;2023-07-28T06:25:05;99811.88;;;17.86;100.00
55610;BME280;41486;52.502;13.486;2023-07-28T06:27:35;99814.66;;;17.77;100.00
55610;BME280;41486;52.502;13.486;2023-07-28T06:30:03;99821.78;;;17.77;100.00
55610;BME280;41486;52.502;13.486;2023-07-28T06:32:32;99831.06;;;17.81;100.00
55610;BME280;41486;52.502;13.486;2023-07-28T06:35:00;99832.88;;;17.80;100.00
55610;BME280;41486;52.502;13.486;2023-07-28T06:37:29;99838.03;;;17.82;100.00
55610;BME280;41486;52.502;13.486;2023-07-28T06:39:57;99840.13;;;17.87;100.00
55610;BME280;41486;52.502;13.486;2023-07-28T06:42:26;99841.78;;;17.88;100.00
55610;BME280;41486;52.502;13.486;2023-07-28T06:44:57;99830.56;;;17.92;100.00
55610;BME280;41486;52.502;13.486;2023-07-28T06:47:25;99840.91;;;17.95;100.00
55610;BME280;41486;52.502;13.486;2023-07-28T06:49:54;99837.03;;;18.13;100.00
55610;BME280;41486;52.502;13.486;2023-07-28T06:52:22;99840.50;;;18.13;100.00
55610;BME280;41486;52.502;13.486;2023-07-28T06:54:50;99837.69;;;18.00;100.00
55610;BME280;41486;52.502;13.486;2023-07-28T06:57:18;99838.78;;;18.06;100.00
55610;BME280;41486;52.502;13.486;2023-07-28T06:59:47;99843.81;;;18.16;100.00
55610;BME280;41486;52.502;13.486;2023-07-28T07:02:16;99839.75;;;18.20;100.00
55610;BME280;41486;52.502;13.486;2023-07-28T07:04:45;99840.59;;;18.20;100.00
55610;BME280;41486;52.502;13.486;2023-07-28T07:07:13;99850.47;;;18.26;100.00
55610;BME280;41486;52.502;13.486;2023-07-28T07:09:41;99845.25;;;18.33;100.00
55610;BME280;41486;52.502;13.486;2023-07-28T07:12:09;99840.97;;;18.39;100.00
55610;BME280;41486;52.502;13.486;2023-07-28T07:14:37;99836.91;;;18.58;100.00
55610;BME280;41486;52.502;13.486;2023-07-28T07:17:06;99825.41;;;18.57;100.00
55610;BME280;41486;52.502;13.486;2023-07-28T07:19:36;99830.22;;;18.69;100.00
55610;BME280;41486;52.502;13.486;2023-07-28T07:22:04;99828.13;;;18.86;100.00
55610;BME280;41486;52.502;13.486;2023-07-28T07:24:33;99835.31;;;18.85;100.00
55610;BME280;41486;52.502;13.486;2023-07-28T07:27:01;99829.41;;;18.90;100.00
55610;BME280;41486;52.502;13.486;2023-07-28T07:29:28;99833.16;;;18.96;100.00
55610;BME280;41486;52.502;13.486;2023-07-28T07:31:57;99826.34;;;18.93;100.00
55610;BME280;41486;52.502;13.486;2023-07-28T07:34:25;99828.44;;;18.98;100.00
55610;BME280;41486;52.502;13.486;2023-07-28T07:36:54;99832.13;;;18.97;100.00
55610;BME280;41486;52.502;13.486;2023-07-28T07:39:23;99831.63;;;19.08;100.00
55610;BME280;41486;52.502;13.486;2023-07-28T07:41:51;99829.59;;;19.10;100.00
55610;BME280;41486;52.502;13.486;2023-07-28T07:44:19;99836.03;;;19.22;100.00
55610;BME280;41486;52.502;13.486;2023-07-28T07:46:47;99832.34;;;19.23;100.00
55610;BME280;41486;52.502;13.486;2023-07-28T07:49:15;99824.19;;;19.32;100.00
55610;BME280;41486;52.502;13.486;2023-07-28T07:51:43;99837.91;;;19.57;100.00
55610;BME280;41486;52.502;13.486;2023-07-28T07:54:13;99832.59;;;19.64;100.00
55610;BME280;41486;52.502;13.486;2023-07-28T07:56:45;99833.78;;;19.54;100.00
55610;BME280;41486;52.502;13.486;2023-07-28T07:59:13;99836.50;;;19.61;100.00
55610;BME280;41486;52.502;13.486;2023-07-28T08:01:41;99841.25;;;19.73;100.00
55610;BME280;41486;52.502;13.486;2023-07-28T08:04:09;99838.97;;;19.63;100.00
55610;BME280;41486;52.502;13.486;2023-07-28T08:06:37;99840.84;;;19.69;100.00
55610;BME280;41486;52.502;13.486;2023-07-28T08:09:05;99841.69;;;19.69;100.00
55610;BME280;41486;52.502;13.486;2023-07-28T08:11:35;99828.34;;;19.76;100.00
55610;BME280;41486;52.502;13.486;2023-07-28T08:14:03;99844.69;;;19.95;100.00
55610;BME280;41486;52.502;13.486;2023-07-28T08:16:31;99841.91;;;20.10;100.00
55610;BME280;41486;52.502;13.486;2023-07-28T08:18:59;99841.13;;;20.23;100.00
55610;BME280;41486;52.502;13.486;2023-07-28T08:21:27;99843.34;;;20.19;100.00
55610;BME280;41486;52.502;13.486;2023-07-28T08:23:55;99843.81;;;20.36;100.00
55610;BME280;41486;52.502;13.486;2023-07-28T08:26:23;99838.06;;;20.39;100.00
55610;BME280;41486;52.502;13.486;2023-07-28T08:28:53;99844.06;;;20.48;100.00
55610;BME280;41486;52.502;13.486;2023-07-28T08:31:21;99847.13;;;20.45;100.00
55610;BME280;41486;52.502;13.486;2023-07-28T08:33:50;99845.25;;;20.39;100.00
55610;BME280;41486;52.502;13.486;2023-07-28T08:36:18;99841.94;;;20.23;100.00
55610;BME280;41486;52.502;13.486;2023-07-28T08:38:46;99849.13;;;20.23;100.00
55610;BME280;41486;52.502;13.486;2023-07-28T08:41:15;99845.75;;;20.07;100.00
55610;BME280;41486;52.502;13.486;2023-07-28T08:43:43;99858.31;;;20.07;100.00
55610;BME280;41486;52.502;13.486;2023-07-28T08:46:13;99861.19;;;20.12;100.00
55610;BME280;41486;52.502;13.486;2023-07-28T08:48:41;99863.88;;;20.12;100.00
55610;BME280;41486;52.502;13.486;2023-07-28T08:51:09;99863.91;;;20.18;100.00
55610;BME280;41486;52.502;13.486;2023-07-28T08:53:38;99873.00;;;20.38;100.00
55610;BME280;41486;52.502;13.486;2023-07-28T08:56:06;99866.06;;;20.50;100.00
55610;BME280;41486;52.502;13.486;2023-07-28T08:58:35;99870.81;;;20.61;100.00
55610;BME280;41486;52.502;13.486;2023-07-28T09:01:05;99871.84;;;20.54;100.00
55610;BME280;41486;52.502;13.486;2023-07-28T09:03:34;99874.91;;;20.64;100.00
55610;BME280;41486;52.502;13.486;2023-07-28T09:06:07;99878.28;;;20.73;100.00
55610;BME280;41486;52.502;13.486;2023-07-28T09:08:37;99891.78;;;20.58;100.00
55610;BME280;41486;52.502;13.486;2023-07-28T09:11:05;99883.50;;;20.46;100.00
55610;BME280;41486;52.502;13.486;2023-07-28T09:13:40;99886.00;;;20.54;100.00
55610;BME280;41486;52.502;13.486;2023-07-28T09:16:20;99880.25;;;20.64;100.00
55610;BME280;41486;52.502;13.486;2023-07-28T09:18:50;99881.28;;;20.56;100.00
55610;BME280;41486;52.502;13.486;2023-07-28T09:21:20;99888.50;;;20.62;100.00
55610;BME280;41486;52.502;13.486;2023-07-28T09:23:49;99895.41;;;20.37;100.00
55610;BME280;41486;52.502;13.486;2023-07-28T09:26:17;99903.50;;;20.08;100.00
55610;BME280;41486;52.502;13.486;2023-07-28T09:28:45;99899.81;;;20.02;100.00
55610;BME280;41486;52.502;13.486;2023-07-28T09:31:13;99894.69;;;20.08;100.00
55610;BME280;41486;52.502;13.486;2023-07-28T09:33:41;99899.19;;;20.07;100.00
55610;BME280;41486;52.502;13.486;2023-07-28T09:36:15;99896.22;;;20.30;100.00
55610;BME280;41486;52.502;13.486;2023-07-28T09:38:43;99890.25;;;20.35;100.00
55610;BME280;41486;52.502;13.486;2023-07-28T09:41:12;99906.34;;;20.42;100.00
55610;BME280;41486;52.502;13.486;2023-07-28T09:43:40;99905.78;;;20.67;100.00
55610;BME280;41486;52.502;13.486;2023-07-28T09:46:10;99910.91;;;20.55;100.00
55610;BME280;41486;52.502;13.486;2023-07-28T09:48:38;99916.03;;;20.56;100.00
55610;BME280;41486;52.502;13.486;2023-07-28T09:51:11;99917.66;;;20.51;100.00
55610;BME280;41486;52.502;13.486;2023-07-28T09:53:46;99903.28;;;20.65;100.00
55610;BME280;41486;52.502;13.486;2023-07-28T09:56:15;99903.78;;;20.75;100.00
55610;BME280;41486;52.502;13.486;2023-07-28T09:58:49;99901.91;;;20.76;100.00
55610;BME280;41486;52.502;13.486;2023-07-28T10:01:17;99913.25;;;20.85;100.00
55610;BME280;41486;52.502;13.486;2023-07-28T10:03:47;99902.16;;;21.15;100.00
55610;BME280;41486;52.502;13.486;2023-07-28T10:06:15;99902.38;;;21.06;100.00
55610;BME280;41486;52.502;13.486;2023-07-28T10:08:46;99909.78;;;21.04;100.00
55610;BME280;41486;52.502;13.486;2023-07-28T10:11:14;99903.97;;;20.80;100.00
55610;BME280;41486;52.502;13.486;2023-07-28T10:13:44;99909.88;;;20.62;100.00
55610;BME280;41486;52.502;13.486;2023-07-28T10:16:13;99910.28;;;20.59;100.00
55610;BME280;41486;52.502;13.486;2023-07-28T10:18:51;99916.66;;;20.58;100.00
55610;BME280;41486;52.502;13.486;2023-07-28T10:21:19;99914.41;;;20.62;100.00
55610;BME280;41486;52.502;13.486;2023-07-28T10:23:55;99909.28;;;20.67;100.00
55610;BME280;41486;52.502;13.486;2023-07-28T10:26:37;99914.66;;;20.80;100.00
55610;BME280;41486;52.502;13.486;2023-07-28T10:29:11;99917.78;;;21.04;100.00
55610;BME280;41486;52.502;13.486;2023-07-28T10:31:57;99917.59;;;20.99;100.00
55610;BME280;41486;52.502;13.486;2023-07-28T10:34:25;99926.44;;;21.06;100.00
55610;BME280;41486;52.502;13.486;2023-07-28T10:36:57;99928.13;;;21.14;100.00
55610;BME280;41486;52.502;13.486;2023-07-28T10:39:27;99929.31;;;20.98;100.00
55610;BME280;41486;52.502;13.486;2023-07-28T10:42:04;99937.94;;;20.87;100.00
55610;BME280;41486;52.502;13.486;2023-07-28T10:44:33;99938.56;;;20.40;100.00
55610;BME280;41486;52.502;13.486;2023-07-28T10:47:01;99938.63;;;19.77;100.00
55610;BME280;41486;52.502;13.486;2023-07-28T10:49:29;99941.63;;;19.67;100.00
55610;BME280;41486;52.502;13.486;2023-07-28T10:51:57;99957.19;;;19.85;100.00
55610;BME280;41486;52.502;13.486;2023-07-28T10:54:27;99953.53;;;19.93;100.00
55610;BME280;41486;52.502;13.486;2023-07-28T10:56:55;99959.47;;;20.23;100.00
55610;BME280;41486;52.502;13.486;2023-07-28T10:59:23;99965.19;;;20.13;100.00
55610;BME280;41486;52.502;13.486;2023-07-28T11:01:53;99963.09;;;20.09;100.00
55610;BME280;41486;52.502;13.486;2023-07-28T11:04:21;99964.91;;;19.80;100.00
55610;BME280;41486;52.502;13.486;2023-07-28T11:06:51;99972.75;;;19.31;100.00
55610;BME280;41486;52.502;13.486;2023-07-28T11:09:22;99993.31;;;18.94;100.00
55610;BME280;41486;52.502;13.486;2023-07-28T11:11:52;99995.91;;;18.72;100.00
55610;BME280;41486;52.502;13.486;2023-07-28T11:14:20;100010.69;;;18.60;100.00
55610;BME280;41486;52.502;13.486;2023-07-28T11:16:49;100011.00;;;18.50;100.00
55610;BME280;41486;52.502;13.486;2023-07-28T11:19:17;100020.09;;;18.41;100.00
55610;BME280;41486;52.502;13.486;2023-07-28T11:21:52;100040.38;;;18.42;100.00
55610;BME280;41486;52.502;13.486;2023-07-28T11:24:21;100071.34;;;18.43;100.00
55610;BME280;41486;52.502;13.486;2023-07-28T11:26:49;100075.03;;;18.42;100.00
55610;BME280;41486;52.502;13.486;2023-07-28T11:29:19;100076.75;;;18.35;100.00
55610;BME280;41486;52.502;13.486;2023-07-28T11:31:48;100077.78;;;18.34;100.00
55610;BME280;41486;52.502;13.486;2023-07-28T11:34:17;100083.94;;;18.34;100.00
55610;BME280;41486;52.502;13.486;2023-07-28T11:36:45;100096.22;;;18.35;100.00
55610;BME280;41486;52.502;13.486;2023-07-28T11:39:13;100091.00;;;18.42;100.00
55610;BME280;41486;52.502;13.486;2023-07-28T11:41:42;100097.44;;;18.48;100.00
55610;BME280;41486;52.502;13.486;2023-07-28T11:44:10;100091.84;;;18.42;100.00
55610;BME280;41486;52.502;13.486;2023-07-28T11:46:42;100105.63;;;18.61;100.00
55610;BME280;41486;52.502;13.486;2023-07-28T11:49:14;100085.31;;;18.75;100.00
55610;BME280;41486;52.502;13.486;2023-07-28T11:51:44;100075.47;;;18.90;100.00
55610;BME280;41486;52.502;13.486;2023-07-28T11:54:14;100071.47;;;18.95;100.00
55610;BME280;41486;52.502;13.486;2023-07-28T11:56:42;100077.22;;;18.83;100.00
55610;BME280;41486;52.502;13.486;2023-07-28T11:59:11;100071.63;;;18.78;100.00
55610;BME280;41486;52.502;13.486;2023-07-28T12:01:56;100079.53;;;18.86;100.00
55610;BME280;41486;52.502;13.486;2023-07-28T12:04:28;100072.53;;;19.00;100.00
55610;BME280;41486;52.502;13.486;2023-07-28T12:07:00;100068.53;;;19.11;100.00
55610;BME280;41486;52.502;13.486;2023-07-28T12:09:30;100076.63;;;19.18;100.00
55610;BME280;41486;52.502;13.486;2023-07-28T12:11:58;100072.75;;;19.20;100.00
55610;BME280;41486;52.502;13.486;2023-07-28T12:14:32;100072.03;;;19.27;100.00
55610;BME280;41486;52.502;13.486;2023-07-28T12:17:11;100069.63;;;19.32;100.00
55610;BME280;41486;52.502;13.486;2023-07-28T12:19:55;100078.97;;;19.43;100.00
55610;BME280;41486;52.502;13.486;2023-07-28T12:22:23;100066.94;;;19.53;100.00
55610;BME280;41486;52.502;13.486;2023-07-28T12:24:51;100042.09;;;20.60;100.00
55610;BME280;41486;52.502;13.486;2023-07-28T12:27:20;100047.31;;;19.83;100.00
55610;BME280;41486;52.502;13.486;2023-07-28T12:29:59;100034.41;;;19.86;100.00
55610;BME280;41486;52.502;13.486;2023-07-28T12:32:32;100033.41;;;19.88;100.00
55610;BME280;41486;52.502;13.486;2023-07-28T12:35:04;100038.31;;;19.62;100.00
55610;BME280;41486;52.502;13.486;2023-07-28T12:37:35;100044.34;;;19.49;100.00
55610;BME280;41486;52.502;13.486;2023-07-28T12:40:08;100066.06;;;19.46;100.00
55610;BME280;41486;52.502;13.486;2023-07-28T12:42:57;100055.16;;;19.41;100.00
55610;BME280;41486;52.502;13.486;2023-07-28T12:45:29;100048.03;;;19.48;100.00
55610;BME280;41486;52.502;13.486;2023-07-28T12:48:19;100054.44;;;19.76;100.00
55610;BME280;41486;52.502;13.486;2023-07-28T12:50:48;100064.22;;;19.90;100.00
55610;BME280;41486;52.502;13.486;2023-07-28T12:53:16;100065.31;;;19.96;100.00
55610;BME280;41486;52.502;13.486;2023-07-28T12:55:49;100069.00;;;19.95;100.00